x

Neah Bay, - 6nm North Of Cape Flattery, Wa (traffic Separation Lighted Buoy) (46087) Wave Buoy

5:20 - Mon 23rd Jan 2017 All times are PST. -8 hours from GMT.

  • Sig Wave height 7.5ft
  • Swell Direction
  • Peak Period 11s
  • Average Period 9s
  • Wind
    16mph, 18mph gusts
  • Sea Temp 46°f
  • Aire Temp 45°f
  • Sea Pressure 1005.2mb
  • Neah Bay, - 6nm North Of Cape Flattery, Wa     (traffic Separation Lighted Buoy)
  • Neah Bay, - 6nm North Of Cape Flattery, Wa     (traffic Separation Lighted Buoy)

More Historic Weather Station data

Upgrade to MSW Pro to gain access to the past 30 days of data for over 8000 Wavebouys and Weather Stations around the globe.

Join Pro

Comparision Forecast

View Surf forecast
   
lun 01/23 5:20 7.5ft 11s 9s 16 18 mph 1005.2mb 46f 45f
4:50 7ft 11s 8s 16 20 mph 1004.8mb 46f 45f
4:20 7.5ft 13s 9s 16 20 mph 1004.5mb 46f 45f
3:50 7ft 11s 8s 16 20 mph 1004.1mb 46f 45f
3:20 8ft 11s 9s 16 18 mph 1003.7mb 46f 45f
2:50 7ft 12s 9s 16 20 mph 1003.4mb 46f 44f
2:20 8ft 12s 9s 16 18 mph 1003mb 46f 44f
1:50 8ft 12s 9s 13 18 mph 1002.8mb 46f 45f
1:20 8ft 12s 9s 16 18 mph 1002.6mb 46f 45f
12:50 8ft 12s 10s 13 16 mph 1002.5mb 46f 45f
12:20 8.5ft 13s 9s 11 16 mph 1002.2mb 46f 45f
dom 01/22 11:50 9ft 13s 9s 11 16 mph 1001.9mb 46f 45f
11:20 9.5ft 13s 9s 13 18 mph 1001.7mb 46f 45f
10:50 8.5ft 13s 8s 13 16 mph 1001.4mb 46f 45f
10:20 9ft 12s 9s 11 13 mph 1001.3mb 46f 45f
9:50 10ft 13s 9s 11 13 mph 1001.1mb 46f 45f
9:20 10ft 13s 9s 11 16 mph 1000.6mb 46f 46f
8:50 10ft 13s 9s 11 16 mph 1000.7mb 46f 45f
8:20 9ft 13s 8s 16 20 mph 1000.4mb 46f 46f
7:50 10ft 10s 8s 16 20 mph 1000mb 46f 45f
7:20 11ft 9s 9s 16 20 mph 999.6mb 46f 46f
6:50 11ft 12s 9s 11 16 mph 999.4mb 46f 46f
6:20 13ft 14s 10s 11 13 mph 999.5mb 46f 46f
5:50 14ft 14s 10s 13 18 mph 999.5mb 46f 46f
5:20 14ft 14s 10s 16 20 mph 999.2mb 46f 46f
4:20 11ft 13s 10s 13 18 mph 998.6mb 46f 46f
3:50 10ft 11s 10s 13 18 mph 998.8mb 46f 46f
3:20 11ft 12s 10s 18 20 mph 998.5mb 46f 46f
2:50 8ft 11s 9s 16 20 mph 998.4mb 46f 46f
2:20 8ft 13s 9s 13 16 mph 998.4mb 46f 46f
1:50 6.5ft 14s 8s 13 18 mph 998mb 46f 46f
1:20 7ft 13s 8s 16 20 mph 997.8mb 46f 46f
12:50 7ft 15s 8s 18 22 mph 997.2mb 46f 47f
12:20 8ft 14s 9s 18 22 mph 997.2mb 46f 46f
11:50 7.5ft 15s 8s 18 22 mph 997.1mb 46f 45f
11:20 7ft 14s 8s 18 22 mph 996.9mb 46f 45f
10:50 7ft 14s 8s 16 20 mph 997.2mb 46f 45f
10:20 8ft 13s 8s 18 27 mph 996.5mb 46f 46f
9:50 8.5ft 14s 8s 18 22 mph 995.7mb 46f 48f
9:20 9ft 14s 9s 22 29 mph 995.8mb 46f 47f
8:50 8.5ft 13s 8s 22 27 mph 995mb 46f 47f
8:20 9ft 14s 8s 22 29 mph 994.6mb 46f 47f
7:50 9ft 14s 8s 20 25 mph 994mb 46f 47f
7:20 9.5ft 14s 8s 22 29 mph 992.9mb 46f 48f
6:50 9ft 15s 8s 25 31 mph 992.9mb 46f 48f
6:20 10ft 14s 8s 22 29 mph 993.2mb 46f 47f
5:20 11.5ft 15s 9s 25 31 mph 993.7mb 46f 46f
4:50 11.5ft 14s 10s 27 36 mph 994mb 46f 46f
4:20 11ft 15s 10s 22 27 mph 993.9mb 46f 46f
3:50 12ft 15s 11s 25 31 mph 995.2mb 46f 45f
3:20 11ft 11s 10s 18 22 mph 997.2mb 46f 45f
2:50 10ft 15s 10s 18 22 mph 997.7mb 46f 45f
2:20 11ft 16s 11s 16 20 mph 997.9mb 46f 45f
1:50 10.5ft 15s 11s 16 20 mph 998.3mb 46f 45f
1:20 11.5ft 15s 11s 16 22 mph 998.6mb 46f 45f
12:50 12ft 16s 11s 16 20 mph 998.9mb 46f 45f
12:20 11ft 16s 10s 13 20 mph 999.3mb 46f 45f
sáb 01/21 11:50 12ft 14s 11s 13 16 mph 999.4mb 46f 45f
11:20 13ft 15s 11s 13 18 mph 999.5mb 46f 45f
10:50 12.5ft 15s 11s 11 16 mph 999.6mb 46f 45f
10:20 12ft 16s 11s 13 18 mph 999.1mb 46f 45f
9:50 12ft 14s 11s 11 13 mph 999.6mb 46f 45f
9:20 13ft 16s 12s 11 16 mph 999.3mb 46f 46f
8:50 13.5ft 16s 12s 9 11 mph 999.2mb 46f 46f
8:20 10.5ft 16s 11s 11 16 mph 999.1mb 46f 46f
7:50 11ft 16s 11s 11 16 mph 998.6mb 46f 46f
7:20 12ft 16s 12s 11 16 mph 998.3mb 46f 46f
6:50 14ft 16s 12s 11 16 mph 997.9mb 46f 46f
6:20 11.5ft 16s 11s 7 11 mph 997.6mb 46f 46f
5:50 13ft 17s 12s 9 13 mph 997.1mb 46f 46f
5:20 11ft 16s 11s 11 16 mph 997.1mb 46f 46f
4:50 13ft 16s 11s 7 11 mph 996.7mb 46f 46f
4:20 12.5ft 16s 11s 11 13 mph 996.5mb 46f 46f
3:50 13.5ft 15s 12s 11 13 mph 996.5mb 46f 46f
3:20 12ft 16s 12s 13 18 mph 995.8mb 46f 46f
2:50 12ft 16s 12s 11 13 mph 995.5mb 46f 46f
2:20 15ft 17s 13s 11 16 mph 994.8mb 46f 46f
1:50 13.5ft 15s 12s 11 18 mph 994.5mb 46f 46f
1:20 12.5ft 17s 13s 11 16 mph 994.4mb 46f 46f
12:50 12ft 17s 12s 9 13 mph 994.2mb 46f 46f
12:20 14ft 15s 13s 11 16 mph 993.9mb 46f 46f
11:50 15ft 17s 13s 11 16 mph 993.6mb 46f 47f
11:20 14ft 17s 13s 13 16 mph 993.4mb 46f 47f
10:50 14ft 17s 13s 11 16 mph 993.1mb 46f 46f
10:20 15ft 17s 13s 11 13 mph 992.7mb 46f 46f
9:50 15ft 16s 13s 11 16 mph 992.3mb 46f 46f
9:20 16ft 17s 14s 13 18 mph 991.9mb 46f 46f
8:50 14ft 17s 13s 13 18 mph 991.5mb 46f 46f
8:20 14ft 16s 13s 13 18 mph 991.1mb 46f 46f
7:50 13ft 19s 13s 11 16 mph 990.7mb 46f 46f
7:20 13.5ft 17s 13s 13 16 mph 990.4mb 46f 46f
6:50 13.5ft 19s 14s 11 16 mph 990.2mb 46f 46f
6:20 12.5ft 19s 13s 11 16 mph 989.9mb 46f 46f
5:50 13ft 19s 14s 11 18 mph 989.8mb 46f 46f
5:20 12.5ft 19s 13s 11 18 mph 989.7mb 46f 46f
4:50 10.5ft 19s 12s 11 16 mph 989.2mb 46f 46f
4:20 9ft 19s 12s 11 13 mph 989.4mb 46f 46f
3:50 8.5ft 19s 11s 11 16 mph 989.2mb 46f 46f
3:20 9ft 19s 11s 13 18 mph 988.9mb 46f 46f
2:50 8.5ft 19s 11s 13 18 mph 988.7mb 46f 46f
2:20 9ft 21s 12s 13 18 mph 988.5mb 46f 46f
1:50 9ft 14s 11s 11 16 mph 988.4mb 46f 46f
1:20 8ft 13s 11s 13 16 mph 988mb 46f 46f
12:50 9ft 14s 11s 9 11 mph 988mb 46f 46f
12:20 7ft 13s 11s 9 11 mph 988mb 46f 46f
vie 01/20 11:50 8.5ft 15s 11s 7 11 mph 987.8mb 46f 46f
11:20 8ft 14s 10s 7 9 mph 987.6mb 46f 46f
10:50 7.5ft 14s 10s 7 9 mph 987.4mb 46f 47f
10:20 8ft 14s 10s 7
mph
987.2mb 46f 47f
9:50 8ft 13s 10s 7 9 mph 987mb 46f 47f
9:20 8.5ft 11s 10s 7 9 mph 986.7mb 46f 47f
8:50 7.5ft 15s 9s 9 11 mph 986.4mb 46f 47f
8:20 9ft 15s 10s 9 11 mph 986.1mb 46f 47f
7:50 9ft 15s 10s 11 13 mph 985.9mb 46f 47f
7:20 9ft 12s 9s 11 13 mph 985.7mb 46f 47f
6:50 9ft 14s 10s 11 13 mph 985.5mb 46f 47f
6:20 9ft 11s 9s 9 13 mph 985.4mb 46f 47f
5:50 10.5ft 12s 10s 11 13 mph 985.1mb 46f 47f
5:20 9ft 14s 9s 13 16 mph 985mb 46f 47f
4:50 9ft 15s 10s 11 16 mph 984.8mb 46f 47f
4:20 8.5ft 14s 9s 11 16 mph 984.8mb 46f 47f
3:50 9ft 13s 9s 16 18 mph 984.5mb 46f 47f
3:20 9ft 16s 9s 16 20 mph 984.3mb 46f 47f
2:50 9ft 13s 9s 18 22 mph 984.2mb 46f 47f
2:20 9ft 14s 9s 16 22 mph 984.1mb 46f 47f
1:50 8.5ft 14s 9s 16 20 mph 984.2mb 46f 47f
1:20 8ft 15s 9s 16 20 mph 984.3mb 46f 46f
12:50 9.5ft 15s 10s 18 20 mph 984.4mb 46f 46f
12:20 8.5ft 15s 9s 18 22 mph 984.7mb 46f 46f
11:50 9ft 14s 9s 18 22 mph 985mb 46f 46f
11:20 9ft 15s 9s 20 25 mph 985.1mb 46f 46f
10:50 11ft 15s 10s 18 22 mph 985.3mb 46f 47f
10:20 10ft 15s 10s 22 29 mph 985.5mb 46f 47f
9:50 11ft 15s 10s 22 29 mph 985.7mb 46f 46f
9:20 12ft 16s 11s 22 27 mph 985.8mb 46f 46f
8:50 11.5ft 16s 11s 16 20 mph 986mb 46f 46f
8:20 11.5ft 16s 11s 18 25 mph 986.3mb 46f 46f
7:50 11.5ft 15s 11s 18 22 mph 986.6mb 46f 46f
7:20 13ft 16s 12s 18 20 mph 987mb 46f 45f
6:50 12.5ft 16s 11s 16 20 mph 987.5mb 46f 45f
6:20 11.5ft 16s 10s 18 22 mph 987.6mb 46f 45f
5:50 13ft 16s 11s 20 25 mph 988.1mb 46f 45f
5:20 14ft 15s 11s 18 20 mph 988.6mb 46f 45f
4:50 13.5ft 16s 11s 18 20 mph 989.1mb 47f 45f
4:20 13ft 15s 11s 16 20 mph 989.7mb 47f 45f
3:50 11.5ft 14s 10s 16 20 mph 990.2mb 47f 45f
3:20 12.5ft 15s 11s 16 18 mph 990.9mb 46f 45f
2:50 13ft 16s 12s 13 18 mph 991.5mb 46f 45f
2:20 12.5ft 13s 11s 13 20 mph 991.9mb 46f 45f
1:50 12ft 15s 11s 16 20 mph 992.3mb 46f 46f
1:20 12ft 14s 11s 13 18 mph 992.8mb 46f 46f
12:50 10.5ft 13s 10s 13 18 mph 993.1mb 46f 45f
12:20 11ft 14s 10s 13 18 mph 993.6mb 46f 46f
jue 01/19 11:50 10ft 14s 10s 13 18 mph 994mb 46f 45f
11:20 11ft 13s 10s 16 20 mph 994.3mb 46f 46f
10:50 12ft 13s 10s 16 20 mph 994.4mb 47f 46f
10:20 12ft 14s 11s 16 20 mph 994.6mb 46f 45f
9:50 10.5ft 14s 10s 11 16 mph 994.8mb 46f 46f
9:20 10.5ft 13s 10s 11 16 mph 995mb 46f 46f
8:50 11ft 14s 10s 11 13 mph 995.1mb 46f 46f
8:20 11ft 11s 10s 9 11 mph 995.3mb 46f 46f
7:50 10ft 11s 10s 7 9 mph 995.5mb 46f 46f
7:20 11.5ft 13s 10s 7 11 mph 995.6mb 46f 46f
6:50 11ft 12s 10s 4 7 mph 995.6mb 46f 46f
6:20 10ft 13s 9s 4 7 mph 995.8mb 46f 45f
5:50 10.5ft 12s 10s 7 9 mph 995.9mb 46f 46f
5:20 11.5ft 12s 10s 7 11 mph 995.9mb 46f 46f
4:50 10.5ft 12s 10s 11 13 mph 995.9mb 46f 46f
4:20 9ft 13s 9s 9 11 mph 995.9mb 46f 46f
3:50 9ft 12s 10s 9 11 mph 995.8mb 46f 46f
3:20 9ft 12s 9s 9 11 mph 995.7mb 46f 46f